Time;durP1;ratioP1;P1;durP2;ratioP2;P2;SDS_P1;SDS_P2;PMS_P1;PMS_P2;Temp;Humidity;BMP_temperature;BMP_pressure;BME280_temperature;BME280_humidity;BME280_pressure;Samples;Min_cycle;Max_cycle;Signal;HPM_P1;HPM_P2
2021/03/12 00:00:10;;;;;;;1.95;1.77;;;6.10;1.00;;;;;;5137877;27;20182;-61
2021/03/12 00:02:36;;;;;;;2.08;1.33;;;6.10;1.00;;;;;;5141966;27;20181;-63
2021/03/12 00:05:03;;;;;;;1.17;1.07;;;6.10;1.00;;;;;;5158219;27;20186;-64
2021/03/12 00:07:29;;;;;;;2.20;1.20;;;6.10;1.00;;;;;;5158697;27;20174;-66
2021/03/12 00:09:54;;;;;;;1.80;1.13;;;6.10;1.00;;;;;;5158083;27;20180;-66
2021/03/12 00:12:20;;;;;;;2.80;1.83;;;6.10;1.00;;;;;;5157883;27;20540;-65
2021/03/12 00:14:46;;;;;;;5.57;2.17;;;6.10;1.00;;;;;;5158019;27;20231;-64
2021/03/12 00:17:11;;;;;;;4.40;1.33;;;6.00;1.00;;;;;;5156632;27;20266;-66
2021/03/12 00:19:37;;;;;;;3.00;1.13;;;6.10;1.00;;;;;;5158262;27;20176;-65
2021/03/12 00:22:03;;;;;;;1.47;1.27;;;6.10;1.00;;;;;;5158205;27;20183;-64
2021/03/12 00:24:28;;;;;;;1.80;1.70;;;6.10;1.00;;;;;;5158230;27;20458;-61
2021/03/12 00:26:58;;;;;;;2.97;1.00;;;6.20;1.00;;;;;;5158169;27;20228;-64
2021/03/12 00:29:25;;;;;;;1.75;1.00;;;6.10;1.00;;;;;;5157525;27;20217;-63
2021/03/12 00:31:50;;;;;;;1.85;1.10;;;6.30;1.00;;;;;;5157997;27;20222;-62
2021/03/12 00:34:16;;;;;;;4.63;1.30;;;6.20;1.00;;;;;;5157586;27;20176;-64
2021/03/12 00:36:41;;;;;;;3.70;1.30;;;6.30;1.00;;;;;;5157827;27;20190;-65
2021/03/12 00:39:11;;;;;;;1.43;1.10;;;6.30;1.00;;;;;;5157603;27;20172;-66
2021/03/12 00:41:36;;;;;;;5.72;1.00;;;6.30;1.00;;;;;;5157754;27;20185;-62
2021/03/12 00:44:02;;;;;;;2.03;0.90;;;6.30;1.00;;;;;;5156542;27;20179;-64
2021/03/12 00:46:28;;;;;;;0.70;0.70;;;6.30;1.00;;;;;;5157946;27;20526;-72
2021/03/12 00:48:57;;;;;;;3.70;1.00;;;6.30;1.00;;;;;;5157986;27;20822;-64
2021/03/12 00:51:31;;;;;;;2.95;1.10;;;6.30;1.00;;;;;;5156479;27;20213;-65
2021/03/12 00:53:57;;;;;;;1.27;1.00;;;6.30;1.00;;;;;;5156946;27;20178;-61
2021/03/12 00:56:23;;;;;;;4.30;0.87;;;6.30;1.00;;;;;;5157480;27;20606;-66
2021/03/12 00:58:49;;;;;;;2.07;1.27;;;6.30;1.00;;;;;;5156504;27;20494;-64
2021/03/12 01:01:14;;;;;;;3.20;1.67;;;6.30;1.00;;;;;;5157609;27;20174;-63
2021/03/12 01:03:40;;;;;;;2.23;1.30;;;6.30;1.00;;;;;;5156126;27;20560;-61
2021/03/12 01:06:06;;;;;;;2.37;1.10;;;6.20;1.00;;;;;;5157443;27;20520;-64
2021/03/12 01:08:31;;;;;;;2.70;1.35;;;6.20;1.00;;;;;;5157928;27;20189;-62
2021/03/12 01:10:57;;;;;;;2.73;1.20;;;6.20;1.00;;;;;;5157444;27;20266;-61
2021/03/12 01:13:23;;;;;;;2.07;1.37;;;6.20;1.00;;;;;;5157547;27;20181;-63
2021/03/12 01:15:54;;;;;;;2.60;1.60;;;6.10;1.00;;;;;;5157677;27;20191;-66
2021/03/12 01:18:19;;;;;;;4.07;1.30;;;6.10;1.00;;;;;;5157988;27;20181;-61
2021/03/12 01:20:47;;;;;;;5.33;1.50;;;6.10;1.00;;;;;;5158282;27;20181;-66
2021/03/12 01:23:12;;;;;;;3.45;1.77;;;6.10;1.00;;;;;;5157195;27;20183;-65
2021/03/12 01:25:43;;;;;;;4.90;1.90;;;6.20;1.00;;;;;;5158064;27;20626;-65
2021/03/12 01:28:32;;;;;;;3.25;1.45;;;6.20;1.00;;;;;;5157157;27;20292;-65
2021/03/12 01:30:58;;;;;;;4.88;1.95;;;6.20;1.00;;;;;;5157711;27;20247;-63
2021/03/12 01:33:23;;;;;;;2.47;1.50;;;6.20;1.00;;;;;;5157132;27;20180;-63
2021/03/12 01:35:49;;;;;;;4.23;1.67;;;6.20;1.00;;;;;;5156838;27;20176;-67
2021/03/12 01:38:15;;;;;;;6.17;1.80;;;6.20;1.00;;;;;;5156533;27;20267;-67
2021/03/12 01:40:47;;;;;;;8.52;1.40;;;6.20;1.00;;;;;;5157199;27;20179;-66
2021/03/12 01:43:19;;;;;;;3.58;1.85;;;6.20;1.00;;;;;;5156629;27;20183;-62
2021/03/12 01:45:50;;;;;;;7.72;2.40;;;6.20;1.00;;;;;;5157054;27;20175;-65
2021/03/12 01:48:20;;;;;;;2.70;1.35;;;6.10;1.00;;;;;;5157324;27;20568;-64
2021/03/12 01:50:50;;;;;;;7.18;1.38;;;6.00;1.00;;;;;;5157416;27;20203;-64
2021/03/12 01:53:17;;;;;;;2.40;1.45;;;6.00;1.00;;;;;;5157048;27;20219;-62
2021/03/12 01:55:44;;;;;;;5.13;1.48;;;6.00;1.00;;;;;;5157383;27;20187;-64
2021/03/12 01:58:17;;;;;;;7.35;1.60;;;5.90;1.00;;;;;;5156931;27;20192;-62
2021/03/12 02:00:43;;;;;;;3.80;1.30;;;5.90;1.00;;;;;;5156037;27;20174;-63
2021/03/12 02:03:09;;;;;;;8.53;1.87;;;5.90;1.00;;;;;;5157678;27;20615;-62
2021/03/12 02:05:36;;;;;;;4.93;1.85;;;5.90;1.00;;;;;;5160995;27;20190;-65
2021/03/12 02:08:03;;;;;;;5.03;1.60;;;5.90;1.00;;;;;;5161694;27;20281;-64
2021/03/12 02:10:28;;;;;;;3.35;1.55;;;5.90;1.00;;;;;;5161010;27;20209;-64
2021/03/12 02:13:15;;;;;;;2.03;1.33;;;5.80;1.00;;;;;;5160665;27;20533;-64
2021/03/12 02:16:08;;;;;;;5.00;1.63;;;5.90;1.00;;;;;;5160878;27;20170;-64
2021/03/12 02:18:45;;;;;;;9.45;2.53;;;5.90;1.00;;;;;;5160817;27;20156;-63
2021/03/12 02:21:17;;;;;;;8.35;1.45;;;5.90;1.00;;;;;;5160933;27;20212;-64
2021/03/12 02:23:58;;;;;;;6.70;1.50;;;5.90;1.00;;;;;;5160290;27;20622;-63
2021/03/12 02:26:42;;;;;;;2.70;1.50;;;6.00;1.00;;;;;;5161140;27;20266;-64
2021/03/12 02:29:14;;;;;;;4.75;2.65;;;6.00;1.00;;;;;;5161259;27;20176;-64
2021/03/12 02:31:40;;;;;;;3.97;1.60;;;6.00;1.00;;;;;;5161050;27;20198;-65
2021/03/12 02:34:15;;;;;;;3.05;2.10;;;6.10;1.00;;;;;;5160277;27;20185;-67
2021/03/12 02:36:45;;;;;;;2.85;1.60;;;6.10;1.00;;;;;;5160552;27;20176;-66
2021/03/12 02:39:14;;;;;;;5.93;2.50;;;6.10;1.00;;;;;;5160864;27;20490;-70
2021/03/12 02:42:00;;;;;;;10.68;2.78;;;6.10;1.00;;;;;;5159621;27;20260;-66
2021/03/12 02:44:28;;;;;;;4.32;1.90;;;6.20;1.00;;;;;;5158340;27;20497;-66
2021/03/12 02:46:58;;;;;;;5.70;2.40;;;6.20;1.00;;;;;;5159098;27;20498;-66
2021/03/12 02:49:25;;;;;;;4.05;2.10;;;6.20;1.00;;;;;;5159511;27;20174;-67
2021/03/12 02:51:52;;;;;;;4.97;2.15;;;6.20;1.00;;;;;;5159425;27;20267;-66
2021/03/12 02:54:21;;;;;;;8.48;2.47;;;6.20;1.00;;;;;;5159684;27;20163;-67
2021/03/12 02:56:46;;;;;;;5.00;2.45;;;6.20;1.00;;;;;;5160033;27;20171;-67
2021/03/12 02:59:14;;;;;;;7.63;1.90;;;6.30;1.00;;;;;;5160151;27;20175;-64
2021/03/12 03:01:40;;;;;;;7.65;3.22;;;6.30;1.00;;;;;;5159777;27;20227;-67
2021/03/12 03:04:09;;;;;;;3.90;2.70;;;6.30;1.00;;;;;;5159428;27;20182;-66
2021/03/12 03:06:35;;;;;;;5.43;2.80;;;6.40;1.00;;;;;;5159127;27;20190;-66
2021/03/12 03:09:00;;;;;;;5.60;2.13;;;6.50;1.00;;;;;;5159415;27;20195;-66
2021/03/12 03:11:26;;;;;;;6.77;2.40;;;6.50;1.00;;;;;;5158256;27;20314;-66
2021/03/12 03:13:53;;;;;;;5.47;2.90;;;6.50;1.00;;;;;;5158995;27;20249;-66
2021/03/12 03:16:28;;;;;;;6.78;3.90;;;6.50;1.00;;;;;;5158110;27;20256;-66
2021/03/12 03:18:55;;;;;;;6.50;3.22;;;6.60;1.00;;;;;;5157988;27;20172;-66
2021/03/12 03:21:21;;;;;;;11.98;4.30;;;6.50;1.00;;;;;;5158745;27;20499;-67
2021/03/12 03:23:50;;;;;;;10.25;4.70;;;6.60;1.00;;;;;;5157852;27;20643;-67
2021/03/12 03:26:16;;;;;;;8.07;2.90;;;6.60;1.00;;;;;;5157289;27;20218;-66
2021/03/12 03:28:42;;;;;;;6.85;2.90;;;6.60;1.00;;;;;;5158249;27;20170;-66
2021/03/12 03:31:08;;;;;;;8.87;3.87;;;6.50;1.00;;;;;;5158265;27;20584;-67
2021/03/12 03:33:34;;;;;;;9.98;3.63;;;6.60;1.00;;;;;;5158330;27;20803;-67
2021/03/12 03:36:01;;;;;;;6.40;3.37;;;6.50;1.00;;;;;;5158040;27;20179;-61
2021/03/12 03:38:27;;;;;;;8.40;3.63;;;6.50;1.00;;;;;;5158375;27;20788;-61
2021/03/12 03:40:52;;;;;;;9.50;3.53;;;6.40;1.00;;;;;;5158312;27;20181;-60
2021/03/12 03:43:25;;;;;;;10.70;4.20;;;6.40;1.00;;;;;;5158263;27;20508;-61
2021/03/12 03:45:54;;;;;;;6.57;3.20;;;6.40;1.00;;;;;;5158077;27;20267;-62
2021/03/12 03:48:20;;;;;;;6.25;2.95;;;6.40;1.00;;;;;;5157832;27;20190;-62
2021/03/12 03:50:46;;;;;;;6.03;3.45;;;6.50;1.00;;;;;;5157528;27;20198;-61
2021/03/12 03:53:13;;;;;;;5.60;2.83;;;6.50;1.00;;;;;;5157160;27;20181;-62
2021/03/12 03:55:39;;;;;;;8.82;2.67;;;6.50;1.00;;;;;;5157513;27;20611;-61
2021/03/12 03:58:06;;;;;;;10.73;3.60;;;6.50;1.00;;;;;;5157725;27;20184;-63
2021/03/12 04:00:32;;;;;;;12.65;4.13;;;6.40;1.00;;;;;;5156723;27;20186;-63
2021/03/12 04:02:58;;;;;;;6.72;2.90;;;6.40;1.00;;;;;;5157232;27;20175;-63
2021/03/12 04:05:25;;;;;;;7.53;2.97;;;6.50;1.00;;;;;;5157335;27;20675;-61
2021/03/12 04:07:52;;;;;;;7.53;2.75;;;6.60;1.00;;;;;;5157832;27;20190;-64
2021/03/12 04:10:20;;;;;;;5.72;3.67;;;6.60;1.00;;;;;;5157978;27;20174;-64
2021/03/12 04:12:47;;;;;;;8.40;3.15;;;6.60;1.00;;;;;;5156871;27;20295;-63
2021/03/12 04:15:13;;;;;;;5.95;2.90;;;6.50;99.90;;;;;;5157040;27;20179;-62
2021/03/12 04:17:39;;;;;;;5.55;2.75;;;6.60;99.90;;;;;;5157740;27;20302;-61
2021/03/12 04:20:06;;;;;;;3.93;2.53;;;6.70;99.90;;;;;;5156884;27;20228;-61
2021/03/12 04:22:32;;;;;;;5.72;2.60;;;6.70;1.00;;;;;;5157987;27;20420;-61
2021/03/12 04:25:00;;;;;;;11.75;3.08;;;6.70;1.00;;;;;;5157842;27;20238;-64
2021/03/12 04:27:26;;;;;;;7.75;3.28;;;6.70;1.00;;;;;;5158643;27;20171;-63
2021/03/12 04:29:52;;;;;;;11.13;3.70;;;6.70;1.00;;;;;;5158627;27;20657;-64
2021/03/12 04:32:19;;;;;;;4.15;2.03;;;6.80;1.00;;;;;;5157006;27;20478;-64
2021/03/12 04:34:45;;;;;;;5.68;2.95;;;6.80;1.00;;;;;;5158304;27;20223;-63
2021/03/12 04:37:11;;;;;;;7.50;3.30;;;6.80;1.00;;;;;;5158568;27;20182;-63
2021/03/12 04:39:37;;;;;;;6.97;2.45;;;6.70;1.00;;;;;;5158377;27;20174;-62
2021/03/12 04:42:05;;;;;;;9.77;2.72;;;6.70;1.00;;;;;;5157996;27;20613;-64
2021/03/12 04:44:35;;;;;;;6.82;2.65;;;6.70;1.00;;;;;;5156106;27;20194;-65
2021/03/12 04:47:02;;;;;;;4.43;2.00;;;6.70;99.90;;;;;;5157369;27;20186;-66
2021/03/12 04:49:28;;;;;;;7.47;3.60;;;6.70;99.90;;;;;;5156648;27;20179;-63
2021/03/12 04:51:54;;;;;;;3.57;2.10;;;6.80;99.90;;;;;;5157702;27;20221;-64
2021/03/12 04:54:20;;;;;;;6.90;2.80;;;6.80;99.90;;;;;;5157296;27;20516;-63
2021/03/12 04:56:46;;;;;;;13.02;2.90;;;6.70;99.90;;;;;;5157470;27;20471;-65
2021/03/12 04:59:12;;;;;;;6.33;3.07;;;6.70;1.00;;;;;;5157871;27;20532;-66
2021/03/12 05:01:42;;;;;;;8.18;2.70;;;6.70;25.10;;;;;;5156823;27;20177;-64
2021/03/12 05:04:09;;;;;;;4.25;1.63;;;6.60;99.90;;;;;;5157749;27;20541;-65
2021/03/12 05:06:38;;;;;;;7.03;1.90;;;6.70;83.40;;;;;;5158005;27;20226;-64
2021/03/12 05:09:04;;;;;;;6.38;2.30;;;6.70;99.90;;;;;;5157760;27;20185;-64
2021/03/12 05:11:30;;;;;;;7.82;2.90;;;6.70;99.90;;;;;;5157832;27;20211;-64
2021/03/12 05:13:56;;;;;;;5.60;2.50;;;6.80;99.90;;;;;;5157359;27;20170;-63
2021/03/12 05:16:22;;;;;;;8.70;2.65;;;6.70;1.00;;;;;;5157772;27;20170;-65
2021/03/12 05:18:47;;;;;;;7.00;2.97;;;6.70;99.90;;;;;;5157708;27;20179;-64
2021/03/12 05:21:14;;;;;;;5.97;2.13;;;6.70;99.90;;;;;;5157686;27;20601;-64
2021/03/12 05:23:40;;;;;;;4.10;1.70;;;6.70;99.90;;;;;;5150793;27;20190;-63
2021/03/12 05:26:06;;;;;;;5.72;2.47;;;6.70;45.70;;;;;;5141760;27;20183;-63
2021/03/12 05:28:32;;;;;;;5.93;2.40;;;6.60;1.00;;;;;;5135048;27;20198;-64
2021/03/12 05:30:58;;;;;;;6.80;2.37;;;6.70;1.00;;;;;;5142507;27;20490;-64
2021/03/12 05:33:23;;;;;;;9.67;2.63;;;6.70;1.00;;;;;;5135302;27;20232;-62
2021/03/12 05:35:49;;;;;;;7.10;2.40;;;6.70;99.90;;;;;;5150539;27;20196;-63
2021/03/12 05:38:15;;;;;;;8.33;2.00;;;6.70;1.00;;;;;;5142597;27;20383;-63
2021/03/12 05:40:41;;;;;;;10.30;2.67;;;6.60;1.00;;;;;;5148927;27;20624;-62
2021/03/12 05:43:09;;;;;;;7.03;2.20;;;6.60;1.00;;;;;;5141464;27;20240;-62
2021/03/12 05:45:35;;;;;;;9.35;2.80;;;6.60;1.00;;;;;;5149767;27;20198;-62
2021/03/12 05:48:01;;;;;;;2.95;1.88;;;6.50;1.00;;;;;;5161790;27;20179;-62
2021/03/12 05:50:27;;;;;;;6.88;2.03;;;6.60;1.00;;;;;;5161580;27;20261;-64
2021/03/12 05:52:54;;;;;;;6.65;2.35;;;6.70;1.00;;;;;;5161227;27;20199;-64
2021/03/12 05:55:20;;;;;;;3.35;2.10;;;6.70;99.90;;;;;;5160933;27;20272;-63
2021/03/12 05:57:46;;;;;;;3.10;1.63;;;6.70;99.90;;;;;;5160794;27;20172;-63
2021/03/12 06:00:14;;;;;;;8.02;2.03;;;6.60;1.00;;;;;;5151421;27;20183;-64
2021/03/12 06:02:40;;;;;;;6.07;2.50;;;6.40;99.90;;;;;;5137443;27;20263;-66
2021/03/12 06:05:10;;;;;;;6.47;2.33;;;6.40;99.90;;;;;;5142553;27;20650;-66
2021/03/12 06:07:37;;;;;;;11.18;2.75;;;6.40;1.00;;;;;;5126501;27;20186;-68
2021/03/12 06:10:08;;;;;;;10.27;2.58;;;6.40;1.00;;;;;;5147921;27;20560;-69
2021/03/12 06:12:34;;;;;;;7.80;2.95;;;6.50;1.00;;;;;;5131539;27;20217;-68
2021/03/12 06:15:02;;;;;;;7.15;2.83;;;6.60;1.00;;;;;;5153272;27;20691;-69
2021/03/12 06:17:40;;;;;;;7.85;2.25;;;7.00;1.00;;;;;;5142863;27;20190;-69
2021/03/12 06:20:16;;;;;;;6.47;2.25;;;7.00;1.00;;;;;;5135961;27;20184;-70
2021/03/12 06:22:58;;;;;;;7.00;2.33;;;6.90;1.00;;;;;;5135905;27;20218;-67
2021/03/12 06:25:26;;;;;;;5.75;2.03;;;6.80;99.90;;;;;;5132107;27;20184;-66
2021/03/12 06:27:53;;;;;;;6.47;2.83;;;7.10;1.00;;;;;;5148939;27;20173;-66
2021/03/12 06:30:21;;;;;;;5.88;2.25;;;7.30;1.00;;;;;;5148084;27;20271;-70
2021/03/12 06:32:51;;;;;;;7.82;2.63;;;7.30;99.90;;;;;;5135616;27;20206;-67
2021/03/12 06:35:20;;;;;;;3.30;2.03;;;7.40;99.90;;;;;;5134134;27;20235;-69
2021/03/12 06:37:47;;;;;;;13.88;2.90;;;7.50;23.60;;;;;;5122932;27;20171;-67
2021/03/12 06:40:18;;;;;;;7.35;2.28;;;7.30;99.90;;;;;;5135431;27;20261;-67
2021/03/12 06:43:02;;;;;;;4.78;2.15;;;7.20;99.90;;;;;;5137974;27;20581;-66
2021/03/12 06:45:30;;;;;;;5.78;2.10;;;7.00;1.00;;;;;;5137847;27;20185;-66
2021/03/12 06:48:14;;;;;;;7.57;2.00;;;7.00;1.00;;;;;;5137144;27;20215;-66
2021/03/12 06:50:44;;;;;;;4.47;1.95;;;7.00;1.00;;;;;;5126667;27;20200;-67
2021/03/12 06:53:32;;;;;;;8.68;1.60;;;7.00;99.90;;;;;;5132502;27;20638;-65
2021/03/12 06:56:07;;;;;;;5.10;2.25;;;7.00;1.00;;;;;;5146549;27;20187;-64
2021/03/12 06:58:33;;;;;;;12.07;2.55;;;7.00;1.00;;;;;;5141070;27;20174;-69
2021/03/12 07:00:59;;;;;;;4.30;2.15;;;7.10;4.80;;;;;;5135401;27;20203;-68
2021/03/12 07:03:36;;;;;;;7.55;2.08;;;7.10;1.00;;;;;;5139886;27;20220;-61
2021/03/12 07:06:07;;;;;;;3.00;1.58;;;7.10;1.00;;;;;;5134027;27;20542;-67
2021/03/12 07:08:34;;;;;;;6.85;1.75;;;7.00;1.00;;;;;;5141625;27;20184;-67
2021/03/12 07:11:01;;;;;;;8.93;2.45;;;7.10;1.00;;;;;;5140752;27;20201;-72
2021/03/12 07:13:27;;;;;;;6.47;2.13;;;7.10;1.00;;;;;;5116431;28;20187;-67
2021/03/12 07:15:55;;;;;;;3.45;1.63;;;7.20;1.00;;;;;;5117369;28;20273;-70
2021/03/12 07:18:22;;;;;;;6.68;2.65;;;7.30;1.00;;;;;;5116737;28;20254;-70
2021/03/12 07:20:48;;;;;;;11.02;2.17;;;7.30;99.90;;;;;;5128823;27;20185;-70
2021/03/12 07:23:20;;;;;;;9.25;2.63;;;7.20;99.90;;;;;;5126545;27;20194;-67
2021/03/12 07:25:46;;;;;;;2.83;1.92;;;7.30;99.90;;;;;;5150288;27;20686;-63
2021/03/12 07:28:16;;;;;;;5.32;2.00;;;7.30;99.90;;;;;;5138577;27;20503;-63
2021/03/12 07:30:43;;;;;;;6.78;2.38;;;7.20;89.40;;;;;;5139474;27;20542;-64
2021/03/12 07:33:10;;;;;;;6.40;1.90;;;7.30;99.90;;;;;;5143713;27;20176;-65
2021/03/12 07:35:41;;;;;;;3.92;1.70;;;7.40;99.90;;;;;;5148773;27;20205;-65
2021/03/12 07:38:10;;;;;;;5.80;2.30;;;7.30;99.90;;;;;;5143141;27;20177;-64
2021/03/12 07:40:36;;;;;;;6.25;1.75;;;7.40;99.90;;;;;;5134774;27;20668;-65
2021/03/12 07:43:02;;;;;;;9.70;2.47;;;7.80;99.90;;;;;;5134384;27;20187;-64
2021/03/12 07:45:28;;;;;;;6.43;2.30;;;7.60;1.00;;;;;;5136127;27;20427;-65
2021/03/12 07:47:54;;;;;;;4.32;1.90;;;7.60;99.90;;;;;;5135529;27;20210;-65
2021/03/12 07:50:23;;;;;;;3.38;1.73;;;7.40;85.20;;;;;;5137625;27;20192;-62
2021/03/12 07:52:50;;;;;;;6.72;1.77;;;7.30;99.90;;;;;;5133891;27;20196;-63
2021/03/12 07:55:34;;;;;;;4.88;1.50;;;7.50;99.90;;;;;;5130060;27;20359;-63
2021/03/12 07:58:04;;;;;;;9.55;1.90;;;7.70;99.90;;;;;;5135628;27;20181;-63
2021/03/12 08:00:30;;;;;;;6.55;1.75;;;7.80;1.00;;;;;;5132813;27;20480;-66
2021/03/12 08:02:58;;;;;;;6.40;2.23;;;8.00;21.10;;;;;;5135832;27;20196;-66
2021/03/12 08:05:34;;;;;;;4.22;1.40;;;8.10;1.00;;;;;;5133964;27;20927;-69
2021/03/12 08:08:01;;;;;;;5.90;1.67;;;7.80;1.00;;;;;;5137624;27;20175;-64
2021/03/12 08:10:27;;;;;;;7.18;2.03;;;7.80;1.00;;;;;;5123811;27;20435;-63
2021/03/12 08:12:52;;;;;;;7.27;2.03;;;7.90;1.00;;;;;;5115472;28;20181;-64
2021/03/12 08:15:24;;;;;;;3.43;1.90;;;7.80;1.00;;;;;;5116500;28;20479;-64
2021/03/12 08:18:09;;;;;;;8.73;1.90;;;7.70;1.00;;;;;;5116463;28;20498;-68
2021/03/12 08:20:43;;;;;;;3.65;1.45;;;7.80;1.00;;;;;;5104749;28;20189;-66
2021/03/12 08:23:14;;;;;;;6.88;2.00;;;8.10;1.00;;;;;;5115816;28;20173;-68
2021/03/12 08:25:40;;;;;;;5.60;1.73;;;7.80;1.00;;;;;;5124743;27;20638;-67
2021/03/12 08:28:11;;;;;;;5.00;1.77;;;7.90;1.00;;;;;;5133862;27;20655;-68
2021/03/12 08:30:39;;;;;;;3.95;1.45;;;8.10;1.00;;;;;;5150153;27;20172;-66
2021/03/12 08:33:07;;;;;;;7.55;1.67;;;8.40;1.00;;;;;;5141764;27;20192;-66
2021/03/12 08:35:36;;;;;;;5.25;1.85;;;8.40;99.90;;;;;;5148366;27;20187;-64
2021/03/12 08:38:25;;;;;;;8.13;2.83;;;8.40;99.90;;;;;;5150248;27;20184;-66
2021/03/12 08:41:14;;;;;;;5.18;1.50;;;8.20;99.90;;;;;;5153587;27;20180;-69
2021/03/12 08:43:44;;;;;;;7.57;2.05;;;8.40;1.00;;;;;;5147871;27;20179;-67
2021/03/12 08:46:23;;;;;;;2.45;1.75;;;8.40;99.90;;;;;;5140914;27;20231;-69
2021/03/12 08:48:55;;;;;;;5.05;1.80;;;8.30;99.90;;;;;;5115015;28;20185;-69
2021/03/12 08:51:25;;;;;;;6.32;2.72;;;8.40;99.90;;;;;;5118049;27;20288;-65
2021/03/12 08:53:56;;;;;;;3.95;2.17;;;8.40;99.90;;;;;;5135457;27;20310;-67
2021/03/12 08:56:25;;;;;;;2.95;1.75;;;8.50;99.90;;;;;;5129557;27;20196;-66
2021/03/12 08:58:51;;;;;;;7.53;1.50;;;8.50;99.90;;;;;;5135301;27;20606;-66
2021/03/12 09:01:24;;;;;;;4.80;3.03;;;8.50;99.90;;;;;;5135488;27;20185;-65
2021/03/12 09:03:56;;;;;;;8.57;2.60;;;8.90;99.90;;;;;;5134048;27;20430;-67
2021/03/12 09:06:27;;;;;;;6.30;4.95;;;9.00;21.60;;;;;;5135510;27;20569;-68
2021/03/12 09:08:54;;;;;;;5.70;1.52;;;8.70;67.50;;;;;;5133116;27;20561;-64
2021/03/12 09:11:22;;;;;;;6.47;2.15;;;8.70;99.90;;;;;;5148917;27;20202;-64
2021/03/12 09:13:49;;;;;;;4.63;2.30;;;8.70;56.80;;;;;;5155054;27;20209;-65
2021/03/12 09:16:20;;;;;;;7.00;2.20;;;8.70;90.00;;;;;;5143537;27;20256;-63
2021/03/12 09:18:46;;;;;;;6.18;2.40;;;8.80;1.00;;;;;;5146180;27;20333;-66
2021/03/12 09:21:17;;;;;;;6.53;3.88;;;8.90;1.00;;;;;;5152268;27;20177;-69
2021/03/12 09:23:43;;;;;;;3.55;2.50;;;8.90;1.00;;;;;;5141333;27;20326;-68
2021/03/12 09:26:15;;;;;;;6.10;2.70;;;9.10;1.00;;;;;;5134387;27;20252;-62
2021/03/12 09:28:42;;;;;;;6.55;2.63;;;9.00;1.00;;;;;;5134347;27;20184;-65
2021/03/12 09:31:09;;;;;;;5.22;3.13;;;9.00;1.00;;;;;;5139712;27;20762;-65
2021/03/12 09:33:40;;;;;;;10.68;4.50;;;8.80;1.00;;;;;;5152550;27;20564;-66
2021/03/12 09:36:26;;;;;;;5.22;2.38;;;8.80;1.00;;;;;;5155502;27;20206;-66
2021/03/12 09:38:53;;;;;;;4.03;2.55;;;8.70;1.00;;;;;;5148722;27;20181;-65
2021/03/12 09:41:24;;;;;;;5.80;3.05;;;8.60;1.00;;;;;;5146152;27;20173;-65
2021/03/12 09:44:13;;;;;;;6.05;3.20;;;8.50;97.10;;;;;;5155012;27;20183;-65
2021/03/12 09:46:48;;;;;;;7.47;2.60;;;8.30;99.90;;;;;;5143891;27;20494;-68
2021/03/12 09:49:19;;;;;;;9.48;3.47;;;8.40;99.90;;;;;;5133253;28;20644;-67
2021/03/12 09:51:47;;;;;;;5.03;2.60;;;8.70;99.90;;;;;;5133247;28;20303;-63
2021/03/12 09:54:14;;;;;;;7.13;2.60;;;8.70;1.00;;;;;;5133241;28;20182;-66
2021/03/12 09:56:49;;;;;;;8.60;2.80;;;8.80;1.00;;;;;;5126330;27;20582;-64
2021/03/12 09:59:17;;;;;;;7.28;3.10;;;8.60;1.00;;;;;;5113906;28;20167;-66
2021/03/12 10:01:43;;;;;;;5.78;3.70;;;8.60;18.80;;;;;;5113145;28;20189;-66
2021/03/12 10:04:25;;;;;;;12.50;3.90;;;8.60;92.60;;;;;;5114169;28;20260;-67
2021/03/12 10:07:19;;;;;;;8.48;3.28;;;8.60;1.00;;;;;;5133090;27;20279;-66
2021/03/12 10:09:49;;;;;;;6.13;2.53;;;8.80;1.00;;;;;;5130649;27;20217;-65
2021/03/12 10:12:22;;;;;;;9.48;3.50;;;8.80;1.00;;;;;;5137263;27;20212;-64
2021/03/12 10:14:49;;;;;;;4.15;2.50;;;8.80;1.00;;;;;;5139223;27;20231;-65
2021/03/12 10:17:20;;;;;;;11.43;6.00;;;9.20;1.00;;;;;;5132227;27;20182;-65
2021/03/12 10:19:50;;;;;;;5.20;3.15;;;9.60;1.00;;;;;;5133357;27;20319;-67
2021/03/12 10:22:37;;;;;;;8.32;2.47;;;9.70;99.90;;;;;;5148335;27;20565;-67
2021/03/12 10:25:18;;;;;;;4.20;3.13;;;9.70;99.90;;;;;;5142626;27;20200;-67
2021/03/12 10:27:44;;;;;;;4.88;3.03;;;9.60;99.90;;;;;;5158879;27;20555;-65
2021/03/12 10:30:12;;;;;;;8.13;2.70;;;9.40;99.90;;;;;;5158072;27;20204;-67
2021/03/12 10:32:54;;;;;;;5.93;2.80;;;9.40;99.90;;;;;;5136865;27;20474;-67
2021/03/12 10:35:31;;;;;;;9.23;2.78;;;9.80;99.90;;;;;;5136937;27;20174;-61
2021/03/12 10:38:13;;;;;;;9.32;3.03;;;9.80;99.90;;;;;;5134544;27;20518;-62
2021/03/12 10:40:40;;;;;;;7.22;2.47;;;9.60;99.90;;;;;;5138194;27;20634;-63
2021/03/12 10:43:22;;;;;;;7.40;3.30;;;9.40;99.90;;;;;;5140063;27;20181;-66
2021/03/12 10:45:48;;;;;;;3.85;2.45;;;9.40;99.90;;;;;;5139054;27;20178;-63
2021/03/12 10:48:15;;;;;;;5.00;3.15;;;9.40;99.90;;;;;;5140899;27;20182;-65
2021/03/12 10:50:41;;;;;;;5.85;2.78;;;9.60;99.90;;;;;;5156629;27;20264;-64
2021/03/12 10:53:12;;;;;;;10.45;5.40;;;9.90;99.90;;;;;;5141443;27;20188;-62
2021/03/12 10:55:44;;;;;;;4.82;3.22;;;9.90;99.90;;;;;;5136361;27;20273;-63
2021/03/12 10:58:37;;;;;;;7.18;3.58;;;9.80;99.90;;;;;;5157562;27;20195;-64
2021/03/12 11:01:24;;;;;;;4.57;2.60;;;10.00;99.90;;;;;;5136183;27;20201;-67
2021/03/12 11:03:50;;;;;;;4.53;2.67;;;10.00;99.90;;;;;;5135314;27;20480;-61
2021/03/12 11:06:18;;;;;;;8.03;3.17;;;10.00;99.90;;;;;;5137113;27;20201;-59
2021/03/12 11:08:44;;;;;;;8.55;3.15;;;10.20;99.90;;;;;;5134089;27;20178;-59
2021/03/12 11:11:14;;;;;;;7.88;3.25;;;10.00;99.90;;;;;;5133983;27;20291;-59
2021/03/12 11:13:41;;;;;;;10.80;3.55;;;10.00;99.90;;;;;;5134855;27;20274;-66
2021/03/12 11:16:08;;;;;;;6.47;3.45;;;10.00;99.90;;;;;;5133260;27;20174;-63
2021/03/12 11:18:34;;;;;;;4.00;2.13;;;10.00;99.90;;;;;;5152478;27;20263;-64
2021/03/12 11:21:03;;;;;;;8.10;3.75;;;9.90;99.90;;;;;;5155522;27;20178;-66
2021/03/12 11:23:28;;;;;;;5.35;3.08;;;9.70;99.90;;;;;;5155152;27;20241;-66
2021/03/12 11:25:55;;;;;;;5.73;3.90;;;9.40;99.90;;;;;;5155206;27;20554;-66
2021/03/12 11:28:21;;;;;;;9.05;3.75;;;9.50;1.00;;;;;;5156078;27;20286;-61
2021/03/12 11:30:47;;;;;;;7.43;2.83;;;9.60;99.90;;;;;;5157397;27;20499;-59
2021/03/12 11:33:13;;;;;;;4.03;2.77;;;9.70;1.00;;;;;;5156700;27;20173;-59
2021/03/12 11:35:39;;;;;;;5.25;2.58;;;9.80;99.90;;;;;;5142632;27;20436;-64
2021/03/12 11:38:05;;;;;;;6.47;2.90;;;9.80;99.90;;;;;;5132774;27;20197;-64
2021/03/12 11:40:32;;;;;;;4.20;3.00;;;9.50;99.90;;;;;;5124546;27;20178;-64
2021/03/12 11:42:57;;;;;;;9.32;3.28;;;9.40;99.90;;;;;;5148590;27;20177;-64
2021/03/12 11:45:23;;;;;;;8.50;2.67;;;9.50;1.00;;;;;;5147508;27;20196;-64
2021/03/12 11:47:51;;;;;;;4.57;2.07;;;9.40;99.90;;;;;;5139269;27;20253;-64
2021/03/12 11:50:17;;;;;;;4.82;2.55;;;9.50;99.90;;;;;;5133554;27;20600;-62
2021/03/12 11:52:44;;;;;;;5.50;2.10;;;9.60;99.90;;;;;;5144406;27;20207;-62
2021/03/12 11:55:10;;;;;;;6.70;2.75;;;9.60;99.90;;;;;;5139488;27;20206;-58
2021/03/12 11:57:36;;;;;;;6.78;2.30;;;9.50;99.90;;;;;;5145379;27;20676;-65
2021/03/12 12:00:09;;;;;;;8.25;3.30;;;9.50;99.90;;;;;;5137575;27;20188;-59
2021/03/12 12:02:36;;;;;;;5.72;2.20;;;9.60;99.90;;;;;;5136658;27;20197;-67
2021/03/12 12:05:02;;;;;;;6.82;1.95;;;9.70;99.90;;;;;;5125379;27;20202;-64
2021/03/12 12:07:28;;;;;;;7.35;2.58;;;9.90;99.90;;;;;;5134476;27;20211;-62
2021/03/12 12:09:54;;;;;;;8.10;2.13;;;10.00;99.90;;;;;;5135417;27;20265;-64
2021/03/12 12:12:20;;;;;;;2.97;1.60;;;9.90;99.90;;;;;;5135629;27;20283;-64
2021/03/12 12:14:46;;;;;;;7.00;2.37;;;10.00;99.90;;;;;;5134347;27;20243;-63
2021/03/12 12:17:13;;;;;;;3.47;1.77;;;10.10;99.90;;;;;;5140787;27;20220;-63
2021/03/12 12:19:40;;;;;;;9.23;2.75;;;10.00;99.90;;;;;;5127752;27;20185;-67
2021/03/12 12:22:07;;;;;;;3.25;2.10;;;10.00;99.90;;;;;;5134263;27;20182;-67
2021/03/12 12:24:33;;;;;;;6.50;1.95;;;10.30;99.90;;;;;;5135413;27;20177;-64
2021/03/12 12:26:59;;;;;;;6.20;1.63;;;10.20;80.00;;;;;;5135463;27;20601;-62
2021/03/12 12:29:25;;;;;;;2.63;1.80;;;10.30;48.70;;;;;;5135312;27;20182;-63
2021/03/12 12:31:54;;;;;;;6.30;2.30;;;10.70;21.20;;;;;;5134076;27;20479;-63
2021/03/12 12:34:20;;;;;;;10.43;2.05;;;11.20;1.00;;;;;;5140717;27;20892;-67
2021/03/12 12:36:46;;;;;;;4.03;1.83;;;11.10;1.00;;;;;;5136407;27;20272;-67
2021/03/12 12:39:13;;;;;;;8.73;2.33;;;11.20;1.00;;;;;;5148745;27;20931;-67
2021/03/12 12:41:40;;;;;;;5.45;2.67;;;10.80;1.00;;;;;;5135995;27;20508;-67
2021/03/12 12:44:07;;;;;;;4.40;1.80;;;10.60;1.00;;;;;;5131089;27;20630;-66
2021/03/12 12:46:34;;;;;;;4.35;1.70;;;10.50;1.00;;;;;;5141622;27;20197;-67
2021/03/12 12:49:00;;;;;;;4.93;1.85;;;10.70;1.00;;;;;;5134366;27;20192;-68
2021/03/12 12:51:26;;;;;;;5.85;3.00;;;10.70;1.00;;;;;;5133246;27;20821;-68
2021/03/12 12:53:51;;;;;;;1.43;1.20;;;10.70;1.00;;;;;;5129999;27;20178;-65
2021/03/12 12:56:17;;;;;;;7.53;2.20;;;10.50;1.00;;;;;;5146976;27;20512;-68
2021/03/12 12:58:42;;;;;;;6.83;2.83;;;10.20;6.10;;;;;;5148709;27;20182;-65
2021/03/12 13:01:08;;;;;;;3.43;1.67;;;10.10;29.20;;;;;;5135015;27;20189;-63
2021/03/12 13:03:34;;;;;;;5.70;1.70;;;10.20;83.20;;;;;;5135047;27;20533;-64
2021/03/12 13:06:00;;;;;;;6.07;2.10;;;10.10;99.90;;;;;;5133721;27;20458;-68
2021/03/12 13:08:25;;;;;;;5.17;2.23;;;10.00;99.90;;;;;;5134720;27;20190;-65
2021/03/12 13:10:51;;;;;;;6.17;2.57;;;9.80;99.90;;;;;;5134854;27;20216;-63